createdAt,value
2022-12-11T00:01:12.365Z,76.77
2022-12-11T00:03:40.807Z,80.97
2022-12-11T00:06:11.896Z,81.07
2022-12-11T00:08:41.097Z,82.63
2022-12-11T00:11:10.762Z,83.33
2022-12-11T00:13:40.085Z,83.83
2022-12-11T00:16:09.274Z,87.63
2022-12-11T00:18:37.624Z,81.73
2022-12-11T00:21:07.909Z,89.87
2022-12-11T00:23:39.158Z,84.18
2022-12-11T00:26:09.065Z,84.32
2022-12-11T00:28:37.726Z,79.97
2022-12-11T00:31:07.156Z,86.77
2022-12-11T00:33:35.459Z,71.93
2022-12-11T00:36:03.973Z,76.73
2022-12-11T00:38:32.376Z,85.53
2022-12-11T00:41:02.056Z,87.57
2022-12-11T00:43:30.533Z,82.18
2022-12-11T00:46:01.868Z,83.17
2022-12-11T00:48:30.029Z,81.97
2022-12-11T00:50:58.114Z,84.30
2022-12-11T00:53:26.725Z,84.73
2022-12-11T00:55:54.801Z,85.63
2022-12-11T00:58:24.609Z,80.37
2022-12-11T01:00:53.679Z,80.93
2022-12-11T01:03:21.633Z,83.80
2022-12-11T01:05:54.574Z,70.00
2022-12-11T01:08:22.988Z,62.20
2022-12-11T01:10:50.024Z,61.10
2022-12-11T01:13:18.614Z,61.17
2022-12-11T01:15:50.919Z,54.45
2022-12-11T01:18:19.159Z,57.73
2022-12-11T01:20:47.305Z,58.67
2022-12-11T01:23:15.346Z,62.03
2022-12-11T01:25:47.156Z,58.47
2022-12-11T01:28:15.255Z,59.27
2022-12-11T01:30:44.397Z,52.70
2022-12-11T01:33:17.348Z,55.43
2022-12-11T01:35:45.225Z,54.03
2022-12-11T01:38:13.120Z,50.73
2022-12-11T01:40:54.368Z,51.27
2022-12-11T01:43:22.261Z,53.10
2022-12-11T01:45:50.693Z,47.43
2022-12-11T01:48:23.650Z,47.70
2022-12-11T01:50:55.507Z,55.33
2022-12-11T01:53:31.515Z,51.20
2022-12-11T01:56:00.158Z,61.27
2022-12-11T01:58:33.487Z,53.33
2022-12-11T02:01:04.435Z,55.07
2022-12-11T02:03:33.901Z,63.03
2022-12-11T02:06:02.531Z,58.20
2022-12-11T02:08:31.018Z,55.33
2022-12-11T02:11:07.984Z,66.47
2022-12-11T02:13:45.974Z,62.83
2022-12-11T02:16:20.502Z,66.63
2022-12-11T02:18:57.306Z,67.83
2022-12-11T02:21:28.023Z,60.87
2022-12-11T02:24:29.014Z,62.27
2022-12-11T02:27:27.604Z,71.60
2022-12-11T02:30:03.415Z,68.70
2022-12-11T02:32:38.551Z,74.37
2022-12-11T02:35:16.135Z,79.90
2022-12-11T02:37:48.250Z,85.17
2022-12-11T02:40:21.314Z,86.30
2022-12-11T02:42:51.225Z,90.73
2022-12-11T02:45:22.193Z,86.47
2022-12-11T02:47:51.718Z,72.40
2022-12-11T02:50:23.922Z,71.50
2022-12-11T02:52:57.194Z,73.73
2022-12-11T02:55:28.368Z,74.43
2022-12-11T02:58:04.779Z,78.83
2022-12-11T03:00:34.846Z,83.17
2022-12-11T03:03:03.595Z,93.37
2022-12-11T03:05:32.577Z,90.77
2022-12-11T03:08:00.990Z,80.70
2022-12-11T03:10:28.962Z,72.97
2022-12-11T03:12:58.949Z,85.37
2022-12-11T03:15:36.671Z,88.03
2022-12-11T03:18:11.091Z,92.33
2022-12-11T03:20:42.636Z,90.30
2022-12-11T03:23:19.706Z,69.22
2022-12-11T03:25:55.099Z,75.23
2022-12-11T03:28:30.522Z,70.33
2022-12-11T03:31:05.776Z,65.75
2022-12-11T03:33:37.789Z,64.47
2022-12-11T03:36:10.256Z,68.97
2022-12-11T03:38:42.764Z,71.70
2022-12-11T03:41:13.356Z,77.40
2022-12-11T03:43:42.718Z,70.50
2022-12-11T03:46:15.195Z,74.70
2022-12-11T03:48:46.707Z,75.13
2022-12-11T03:51:15.984Z,78.57
2022-12-11T03:53:45.526Z,63.30
2022-12-11T03:56:17.321Z,65.77
2022-12-11T03:58:45.390Z,63.63
2022-12-11T04:01:14.735Z,61.40
2022-12-11T04:03:42.859Z,59.60
2022-12-11T04:06:11.154Z,57.63
2022-12-11T04:08:39.280Z,61.83
2022-12-11T04:11:24.743Z,64.63
2022-12-11T04:14:12.619Z,56.88
2022-12-11T04:16:41.493Z,64.35
2022-12-11T04:19:28.170Z,60.58
2022-12-11T04:22:28.367Z,46.08
2022-12-11T04:24:56.513Z,43.58
2022-12-11T04:27:42.218Z,35.50
2022-12-11T04:30:15.569Z,33.95
2022-12-11T04:32:46.004Z,30.50
2022-12-11T04:35:14.794Z,30.65
2022-12-11T04:37:43.391Z,29.20
2022-12-11T04:40:15.891Z,24.50
2022-12-11T04:42:44.145Z,23.83
2022-12-11T04:45:13.378Z,25.33
2022-12-11T04:47:42.355Z,27.13
2022-12-11T04:50:13.269Z,25.85
2022-12-11T04:52:41.467Z,20.80
2022-12-11T04:55:11.769Z,23.95
2022-12-11T04:57:40.681Z,33.00
2022-12-11T05:00:12.726Z,37.87
2022-12-11T05:02:42.204Z,41.35
2022-12-11T05:05:13.268Z,49.28
2022-12-11T05:07:42.163Z,50.40
2022-12-11T05:10:13.871Z,51.40
2022-12-11T05:12:41.789Z,58.80
2022-12-11T05:15:10.620Z,55.70
2022-12-11T05:17:39.407Z,59.90
2022-12-11T05:20:08.541Z,61.83
2022-12-11T05:22:40.866Z,67.03
2022-12-11T05:25:09.926Z,67.10
2022-12-11T05:27:37.984Z,69.30
2022-12-11T05:30:07.226Z,72.87
2022-12-11T05:32:35.202Z,77.57
2022-12-11T05:35:03.913Z,85.17
2022-12-11T05:37:34.259Z,90.50
2022-12-11T05:40:06.292Z,89.93
2022-12-11T05:42:34.305Z,91.07
2022-12-11T05:45:02.423Z,92.30
2022-12-11T05:47:31.693Z,91.20
2022-12-11T05:50:01.203Z,95.80
2022-12-11T05:52:29.643Z,90.97
2022-12-11T05:54:57.604Z,93.57
2022-12-11T05:57:27.456Z,96.00
2022-12-11T05:59:55.427Z,97.77
2022-12-11T06:02:23.753Z,95.50
2022-12-11T06:04:52.657Z,89.17
2022-12-11T06:07:21.010Z,88.97
2022-12-11T06:09:48.974Z,87.37
2022-12-11T06:12:17.410Z,85.20
2022-12-11T06:14:46.683Z,85.97
2022-12-11T06:17:14.571Z,83.20
2022-12-11T06:19:42.940Z,79.10
2022-12-11T06:22:11.371Z,81.73
2022-12-11T06:24:39.638Z,86.37
2022-12-11T06:27:07.917Z,87.87
2022-12-11T06:29:35.907Z,87.50
2022-12-11T06:32:05.717Z,81.30
2022-12-11T06:34:34.076Z,82.83
2022-12-11T06:37:02.549Z,78.07
2022-12-11T06:39:31.526Z,83.60
2022-12-11T06:41:59.528Z,81.63
2022-12-11T06:44:27.569Z,78.00
2022-12-11T06:46:55.710Z,78.00
2022-12-11T06:49:25.726Z,83.60
2022-12-11T06:51:53.660Z,89.77
2022-12-11T06:54:21.988Z,93.93
2022-12-11T06:56:50.516Z,92.10
2022-12-11T06:59:19.038Z,94.83
2022-12-11T07:01:49.847Z,91.90
2022-12-11T07:04:18.133Z,93.00
2022-12-11T07:06:49.250Z,93.13
2022-12-11T07:09:17.915Z,92.97
2022-12-11T07:11:46.460Z,90.63
2022-12-11T07:14:14.837Z,94.83
2022-12-11T07:16:43.205Z,75.13
2022-12-11T07:19:11.147Z,89.70
2022-12-11T07:21:39.670Z,88.37
2022-12-11T07:24:10.428Z,90.37
2022-12-11T07:26:38.493Z,82.10
2022-12-11T07:29:06.474Z,80.37
2022-12-11T07:31:34.504Z,81.03
2022-12-11T07:34:04.841Z,79.38
2022-12-11T07:36:33.675Z,82.63
2022-12-11T07:39:02.937Z,68.03
2022-12-11T07:41:32.279Z,73.63
2022-12-11T07:44:01.413Z,76.67
2022-12-11T07:46:31.635Z,73.87
2022-12-11T07:49:00.947Z,70.75
2022-12-11T07:51:32.011Z,80.67
2022-12-11T07:54:02.319Z,81.03
2022-12-11T07:56:34.582Z,80.57
2022-12-11T07:59:05.519Z,80.47
2022-12-11T08:01:36.773Z,82.53
2022-12-11T08:04:06.034Z,88.60
2022-12-11T08:06:35.758Z,91.10
2022-12-11T08:09:06.414Z,86.73
2022-12-11T08:11:38.380Z,78.55
2022-12-11T08:14:09.307Z,77.70
2022-12-11T08:16:40.401Z,76.73
2022-12-11T08:19:11.519Z,84.07
2022-12-11T08:21:40.535Z,77.30
2022-12-11T08:24:10.187Z,79.87
2022-12-11T08:26:40.068Z,82.17
2022-12-11T08:29:10.590Z,84.30
2022-12-11T08:31:39.037Z,74.67
2022-12-11T08:34:07.644Z,75.30
2022-12-11T08:36:35.751Z,60.10
2022-12-11T08:39:03.675Z,64.40
2022-12-11T08:41:32.661Z,66.05
2022-12-11T08:44:02.470Z,68.40
2022-12-11T08:46:33.473Z,71.28
2022-12-11T08:49:01.599Z,58.47
2022-12-11T08:51:31.019Z,46.92
2022-12-11T08:54:01.405Z,53.55
2022-12-11T08:56:31.308Z,70.30
2022-12-11T08:59:04.563Z,57.88
2022-12-11T09:01:34.699Z,70.28
2022-12-11T09:04:03.409Z,63.97
2022-12-11T09:06:34.500Z,67.20
2022-12-11T09:09:03.856Z,70.47
2022-12-11T09:11:35.566Z,61.13
2022-12-11T09:18:37.797Z,72.50
2022-12-11T09:21:09.283Z,81.07
2022-12-11T09:23:48.608Z,75.18
2022-12-11T09:26:20.305Z,70.40
2022-12-11T09:28:57.381Z,82.78
2022-12-11T09:31:28.232Z,78.13
2022-12-11T09:33:58.966Z,82.87
2022-12-11T09:36:28.766Z,85.30
2022-12-11T09:38:57.237Z,80.23
2022-12-11T09:41:36.633Z,79.17
2022-12-11T09:44:30.308Z,88.90
2022-12-11T09:46:58.745Z,99.22
2022-12-11T09:49:34.616Z,88.35
2022-12-11T09:52:13.814Z,80.38
2022-12-11T09:54:49.899Z,81.83
2022-12-11T09:57:31.078Z,84.60
2022-12-11T10:00:10.023Z,86.53
2022-12-11T10:02:51.831Z,83.47
2022-12-11T10:05:28.447Z,84.50
2022-12-11T10:08:03.022Z,86.78
2022-12-11T10:10:42.913Z,85.00
2022-12-11T10:13:22.591Z,81.43
2022-12-11T10:15:56.334Z,74.45
2022-12-11T10:21:24.440Z,76.00
2022-12-11T10:23:59.893Z,67.90
2022-12-11T10:26:31.340Z,69.97
2022-12-11T10:29:01.662Z,74.47
2022-12-11T10:31:36.933Z,61.93
2022-12-11T10:34:10.075Z,60.33
2022-12-11T10:36:40.312Z,59.03
2022-12-11T10:39:16.122Z,61.33
2022-12-11T10:41:46.817Z,61.35
2022-12-11T10:44:20.002Z,52.78
2022-12-11T10:46:49.380Z,62.47
2022-12-11T10:49:25.939Z,65.28
2022-12-11T10:51:55.924Z,70.10
2022-12-11T10:54:33.554Z,68.88
2022-12-11T10:57:03.980Z,64.23
2022-12-11T10:59:37.281Z,72.22
2022-12-11T11:02:07.039Z,63.88
2022-12-11T11:04:38.061Z,54.70
2022-12-11T11:07:14.090Z,63.20
2022-12-11T11:09:43.654Z,61.42
2022-12-11T11:12:21.715Z,68.87
2022-12-11T11:15:00.552Z,57.42
2022-12-11T11:17:33.796Z,58.80
2022-12-11T11:20:13.151Z,66.87
2022-12-11T11:22:45.997Z,58.75
2022-12-11T11:25:21.142Z,63.58
2022-12-11T11:27:56.065Z,65.22
2022-12-11T11:30:25.881Z,71.78
2022-12-11T11:32:56.892Z,66.00
2022-12-11T11:35:26.963Z,60.53
2022-12-11T11:38:01.866Z,62.03
2022-12-11T11:40:35.438Z,68.82
2022-12-11T11:43:15.626Z,72.68
2022-12-11T11:45:47.950Z,71.43
2022-12-11T11:48:30.207Z,68.63
2022-12-11T11:50:59.200Z,65.63
2022-12-11T11:53:33.398Z,66.75
2022-12-11T11:56:15.684Z,64.68
2022-12-11T11:58:50.175Z,57.67
2022-12-11T12:01:21.607Z,59.47
2022-12-11T12:03:52.029Z,55.35
2022-12-11T12:06:38.457Z,59.03
2022-12-11T12:09:25.139Z,59.65
2022-12-11T12:12:00.140Z,72.22
2022-12-11T12:14:51.989Z,70.93
2022-12-11T12:17:27.871Z,68.63
2022-12-11T12:20:04.695Z,70.47
2022-12-11T12:22:49.652Z,70.85
2022-12-11T12:25:23.890Z,79.82
2022-12-11T12:28:01.287Z,86.38
2022-12-11T12:30:38.783Z,83.50
2022-12-11T12:33:20.904Z,73.38
2022-12-11T12:36:00.886Z,66.25
2022-12-11T12:38:41.902Z,69.65
2022-12-11T12:41:20.025Z,68.63
2022-12-11T12:44:13.409Z,63.85
2022-12-11T12:46:52.201Z,63.42
2022-12-11T12:49:31.544Z,57.50
2022-12-11T12:52:01.698Z,47.00
2022-12-11T12:54:31.384Z,46.65
2022-12-11T12:57:00.802Z,47.55
2022-12-11T12:59:30.628Z,50.90
2022-12-11T13:02:01.488Z,47.20
2022-12-11T13:07:30.242Z,35.67
2022-12-11T13:10:01.901Z,36.33
2022-12-11T13:12:35.369Z,30.50
2022-12-11T13:15:05.466Z,32.35
2022-12-11T13:17:39.181Z,31.60
2022-12-11T13:20:18.245Z,35.55
2022-12-11T13:22:52.963Z,35.72
2022-12-11T13:25:30.321Z,39.15
2022-12-11T13:28:08.887Z,33.03
2022-12-11T13:30:38.914Z,32.67
2022-12-11T13:33:08.814Z,34.03
2022-12-11T13:35:37.099Z,32.55
2022-12-11T13:38:09.563Z,34.55
2022-12-11T13:40:42.679Z,31.02
2022-12-11T13:43:20.087Z,33.55
2022-12-11T13:45:52.161Z,30.02
2022-12-11T13:48:24.784Z,33.33
2022-12-11T13:50:53.712Z,33.05
2022-12-11T13:53:23.105Z,32.28
2022-12-11T13:55:58.993Z,35.40
2022-12-11T13:58:27.498Z,32.63
2022-12-11T14:01:07.679Z,37.47
2022-12-11T14:03:37.057Z,34.17
2022-12-11T14:06:05.438Z,36.55
2022-12-11T14:08:37.704Z,42.60
2022-12-11T14:11:06.730Z,39.10
2022-12-11T14:13:36.574Z,39.38
2022-12-11T14:16:08.737Z,34.58
2022-12-11T14:18:37.882Z,34.33
2022-12-11T14:21:07.501Z,32.83
2022-12-11T14:23:37.664Z,39.78
2022-12-11T14:26:19.041Z,43.35
2022-12-11T14:28:47.522Z,35.47
2022-12-11T14:31:23.195Z,41.05
2022-12-11T14:33:55.972Z,41.30
2022-12-11T14:36:24.925Z,35.78
2022-12-11T14:38:57.266Z,32.50
2022-12-11T14:41:31.044Z,34.60
2022-12-11T14:44:02.150Z,28.25
2022-12-11T14:46:38.504Z,34.92
2022-12-11T14:49:18.908Z,30.98
2022-12-11T14:51:48.063Z,30.75
2022-12-11T14:54:28.288Z,29.50
2022-12-11T14:56:56.936Z,30.42
2022-12-11T14:59:31.741Z,30.02
2022-12-11T15:02:05.051Z,33.35
2022-12-11T15:04:34.542Z,33.70
2022-12-11T15:07:02.435Z,31.60
2022-12-11T15:09:38.739Z,32.05
2022-12-11T15:12:12.456Z,33.63
2022-12-11T15:14:48.491Z,35.22
2022-12-11T15:17:18.874Z,37.72
2022-12-11T15:19:51.557Z,40.83
2022-12-11T15:22:23.831Z,43.00
2022-12-11T15:24:54.475Z,54.17
2022-12-11T15:27:27.445Z,50.60
2022-12-11T15:29:55.676Z,56.90
2022-12-11T15:32:25.458Z,51.17
2022-12-11T15:34:55.382Z,53.42
2022-12-11T15:37:25.531Z,39.40
2022-12-11T15:39:54.578Z,48.80
2022-12-11T15:42:27.548Z,42.08
2022-12-11T15:44:56.556Z,36.63
2022-12-11T15:47:28.612Z,30.60
2022-12-11T15:49:59.303Z,31.23
2022-12-11T15:52:27.240Z,27.30
2022-12-11T15:54:55.740Z,27.27
2022-12-11T15:57:25.719Z,24.27
2022-12-11T15:59:56.268Z,27.05
2022-12-11T16:02:26.761Z,26.83
2022-12-11T16:04:55.346Z,30.05
2022-12-11T16:07:25.272Z,29.92
2022-12-11T16:09:53.651Z,29.40
2022-12-11T16:12:21.757Z,33.85
2022-12-11T16:14:50.217Z,32.40
2022-12-11T16:17:18.152Z,31.50
2022-12-11T16:19:47.632Z,35.10
2022-12-11T16:22:16.434Z,31.63
2022-12-11T16:24:44.512Z,33.90
2022-12-11T16:27:12.588Z,29.85
2022-12-11T16:29:43.042Z,28.40
2022-12-11T16:32:11.594Z,30.13
2022-12-11T16:34:39.713Z,29.02
2022-12-11T16:37:10.777Z,27.27
2022-12-11T16:39:39.904Z,27.63
2022-12-11T16:42:08.224Z,27.58
2022-12-11T16:44:41.029Z,29.17
2022-12-11T16:47:11.779Z,29.05
2022-12-11T16:49:41.276Z,31.02
2022-12-11T16:52:10.793Z,25.55
2022-12-11T16:54:38.853Z,28.05
2022-12-11T16:57:07.411Z,32.65
2022-12-11T16:59:37.734Z,27.97
2022-12-11T17:02:06.534Z,34.85
2022-12-11T17:04:35.022Z,33.63
2022-12-11T17:07:04.023Z,31.80
2022-12-11T17:09:33.457Z,27.73
2022-12-11T17:12:01.601Z,26.90
2022-12-11T17:14:29.766Z,23.90
2022-12-11T17:16:58.707Z,25.45
2022-12-11T17:19:27.107Z,24.73
2022-12-11T17:21:56.186Z,26.60
2022-12-11T17:24:24.231Z,24.17
2022-12-11T17:26:56.125Z,25.85
2022-12-11T17:29:24.371Z,28.17
2022-12-11T17:31:52.878Z,27.35
2022-12-11T17:34:20.945Z,31.95
2022-12-11T17:36:49.250Z,28.02
2022-12-11T17:39:18.908Z,25.63
2022-12-11T17:41:47.106Z,29.88
2022-12-11T17:44:16.643Z,31.45
2022-12-11T17:46:44.587Z,28.48
2022-12-11T17:49:13.193Z,28.90
2022-12-11T17:51:41.195Z,29.30
2022-12-11T17:54:09.237Z,31.70
2022-12-11T17:56:37.453Z,31.03
2022-12-11T17:59:05.948Z,35.15
2022-12-11T18:01:35.423Z,35.55
2022-12-11T18:04:03.722Z,33.22
2022-12-11T18:06:32.388Z,46.00
2022-12-11T18:09:01.847Z,32.70
2022-12-11T18:11:29.788Z,36.58
2022-12-11T18:13:59.305Z,42.50
2022-12-11T18:16:29.759Z,44.88
2022-12-11T18:18:59.296Z,44.63
2022-12-11T18:21:30.678Z,45.10
2022-12-11T18:23:59.089Z,47.47
2022-12-11T18:26:28.014Z,47.78
2022-12-11T18:28:55.969Z,52.47
2022-12-11T18:31:25.232Z,59.40
2022-12-11T18:33:53.808Z,46.97
2022-12-11T18:36:23.634Z,44.53
2022-12-11T18:38:52.093Z,43.93
2022-12-11T18:41:20.758Z,45.17
2022-12-11T18:43:49.182Z,52.90
2022-12-11T18:46:19.126Z,47.97
2022-12-11T18:48:47.515Z,38.33
2022-12-11T18:51:18.595Z,37.25
2022-12-11T18:53:47.915Z,33.85
2022-12-11T18:56:19.196Z,38.67
2022-12-11T18:58:48.110Z,40.47
2022-12-11T19:01:20.321Z,35.83
2022-12-11T19:03:49.061Z,34.27
2022-12-11T19:06:20.304Z,36.30
2022-12-11T19:08:49.732Z,32.40
2022-12-11T19:11:19.196Z,32.13
2022-12-11T19:13:48.183Z,33.03
2022-12-11T19:16:17.896Z,35.15
2022-12-11T19:18:46.774Z,33.73
2022-12-11T19:21:16.081Z,35.73
2022-12-11T19:23:45.612Z,32.77
2022-12-11T19:26:19.580Z,32.28
2022-12-11T19:28:48.027Z,31.50
2022-12-11T19:31:18.246Z,30.98
2022-12-11T19:33:47.469Z,36.00
2022-12-11T19:36:21.753Z,37.47
2022-12-11T19:38:50.814Z,37.78
2022-12-11T19:41:22.029Z,32.70
2022-12-11T19:43:51.035Z,41.73
2022-12-11T19:46:20.225Z,42.85
2022-12-11T19:48:50.108Z,40.07
2022-12-11T19:51:20.229Z,39.97
2022-12-11T19:53:51.285Z,44.20
2022-12-11T19:56:22.203Z,41.37
2022-12-11T19:58:51.018Z,40.33
2022-12-11T20:01:25.284Z,39.03
2022-12-11T20:03:53.951Z,41.85
2022-12-11T20:06:22.376Z,43.67
2022-12-11T20:08:50.996Z,43.30
2022-12-11T20:11:20.865Z,51.27
2022-12-11T20:13:49.904Z,50.13
2022-12-11T20:16:28.891Z,48.17
2022-12-11T20:19:08.402Z,46.30
2022-12-11T20:21:37.432Z,43.83
2022-12-11T20:24:06.021Z,45.17
2022-12-11T20:26:36.960Z,45.47
2022-12-11T20:29:08.064Z,47.07
2022-12-11T20:31:37.159Z,41.57
2022-12-11T20:34:05.703Z,40.47
2022-12-11T20:36:34.533Z,41.87
2022-12-11T20:39:02.609Z,41.30
2022-12-11T20:41:30.775Z,39.23
2022-12-11T20:44:00.475Z,43.05
2022-12-11T20:46:28.949Z,44.37
2022-12-11T20:48:58.823Z,39.70
2022-12-11T20:51:27.694Z,54.17
2022-12-11T20:53:59.356Z,56.40
2022-12-11T20:56:29.928Z,61.07
2022-12-11T20:59:00.986Z,52.83
2022-12-11T21:01:31.635Z,56.33
2022-12-11T21:04:00.733Z,50.03
2022-12-11T21:06:31.857Z,46.67
2022-12-11T21:09:01.229Z,50.60
2022-12-11T21:11:30.276Z,50.70
2022-12-11T21:13:59.569Z,44.33
2022-12-11T21:16:29.367Z,44.50
2022-12-11T21:18:57.668Z,41.63
2022-12-11T21:21:26.098Z,42.13
2022-12-11T21:23:54.528Z,47.80
2022-12-11T21:26:22.406Z,49.83
2022-12-11T21:28:50.254Z,54.38
2022-12-11T21:31:20.959Z,57.50
2022-12-11T21:33:53.030Z,59.17
2022-12-11T21:36:21.442Z,56.57
2022-12-11T21:38:49.397Z,56.35
2022-12-11T21:41:19.511Z,57.85
2022-12-11T21:46:39.929Z,52.40
2022-12-11T21:49:08.846Z,46.20
2022-12-11T21:51:42.667Z,42.30
2022-12-11T21:54:18.547Z,37.50
2022-12-11T21:56:47.437Z,42.53
2022-12-11T21:59:15.995Z,36.87
2022-12-11T22:01:47.391Z,30.20
2022-12-11T22:04:16.706Z,30.07
2022-12-11T22:06:47.477Z,30.55
2022-12-11T22:09:17.856Z,29.92
2022-12-11T22:11:47.877Z,29.90
2022-12-11T22:14:18.254Z,29.17
2022-12-11T22:16:48.127Z,35.33
2022-12-11T22:19:16.087Z,38.40
2022-12-11T22:21:44.132Z,33.35
2022-12-11T22:24:12.092Z,30.63
2022-12-11T22:26:40.726Z,27.83
2022-12-11T22:29:08.670Z,28.25
2022-12-11T22:31:37.068Z,27.57
2022-12-11T22:34:06.330Z,25.52
2022-12-11T22:36:34.246Z,28.98
2022-12-11T22:39:03.182Z,25.23
2022-12-11T22:41:33.673Z,29.52
2022-12-11T22:44:04.098Z,26.98
2022-12-11T22:46:32.101Z,25.55
2022-12-11T22:49:00.587Z,24.25
2022-12-11T22:51:29.971Z,23.65
2022-12-11T22:53:59.772Z,22.33
2022-12-11T22:56:28.094Z,25.42
2022-12-11T22:58:57.341Z,24.35
2022-12-11T23:01:28.670Z,24.40
2022-12-11T23:03:56.564Z,23.73
2022-12-11T23:06:27.340Z,21.73
2022-12-11T23:08:58.926Z,20.52
2022-12-11T23:11:29.210Z,21.60
2022-12-11T23:13:57.874Z,22.85
2022-12-11T23:16:26.989Z,25.55
2022-12-11T23:18:55.171Z,21.73
2022-12-11T23:21:24.214Z,22.90
2022-12-11T23:23:52.490Z,22.30
2022-12-11T23:26:23.874Z,21.45
2022-12-11T23:28:52.826Z,21.65
2022-12-11T23:31:20.917Z,20.08
2022-12-11T23:33:49.198Z,19.98
2022-12-11T23:36:17.538Z,20.33
2022-12-11T23:38:50.967Z,21.05
2022-12-11T23:41:24.254Z,19.67
2022-12-11T23:43:52.803Z,18.93
2022-12-11T23:46:25.470Z,20.85
2022-12-11T23:48:54.329Z,19.10
2022-12-11T23:51:24.774Z,27.90
2022-12-11T23:53:53.639Z,19.67
2022-12-11T23:56:25.481Z,21.70
2022-12-11T23:58:54.377Z,19.00
